Montreal / Pierre Elliott Trudeau International Airport

CYUL · Quebec, 加拿大

METAR的历史 CYUL · 蒙特利尔皮埃尔·埃利奥特·特鲁多国际机场

下面你可以看到过去几天的METARs。 选择年份以浏览从2007年开始的旧METAR。

2024年5月22日

时间 代码 天气 温度 能见度 天花板 METAR/SPECI
06:00
V
18 °C 15 mi 25.000 ft 160° 160° 3 kt METAR CYUL 221000Z 16003KT 15SM R24R/3000VP6000FT/U MIFG FEW025 OVC250 18/17 A2983 RMK SC2CS6 SLP103 DENSITY ALT 600FT
05:44
V
17 °C 8 mi 15.000 ft 140° 140° 2 kt METAR CYUL 220944Z 14002KT 8SM R24R/2800VP6000FT/U -RA MIFG SCT025 BKN150 OVC250 17/17 A2982 RMK SC3AC3CI3 SLP100 DENSITY ALT 600FT
05:00
V
18 °C 6 mi - 360° 360° 0 kt METAR CYUL 220900Z 00000KT 6SM BR MIFG FEW010 SCT025 18/17 A2983 RMK SF2CF2 MIFG W NW SLP102 DENSITY ALT 600FT
04:00
V
18 °C 15 mi 7.000 ft 010° 010° 2 kt METAR CYUL 220800Z 01002KT 15SM SCT035 BKN070 18/18 A2981 RMK CF3AC3 SLP098 DENSITY ALT 700FT
03:00
V
19 °C 15 mi - 120° 120° 2 kt METAR CYUL 220700Z 12002KT 15SM SCT065 SCT120 19/17 A2981 RMK SC3AC1 SLP095 DENSITY ALT 700FT
02:33
V
19 °C 15 mi - Var Var 2 kt METAR CYUL 220633Z VRB02KT 15SM SCT120 19/18 A2981 RMK AC6 SLP095 DENSITY ALT 800FT
02:00
V
18 °C 15 mi 11.000 ft 360° 360° 0 kt METAR CYUL 220600Z 00000KT 15SM FEW035 BKN110 18/18 A2981 RMK SC2AC5 SLP097 DENSITY ALT 700FT
02:04
V
19 °C 15 mi 12.000 ft 360° 360° 0 kt METAR CYUL 220604Z 00000KT 15SM -RA FEW035 BKN120 19/18 A2981 RMK SC2AC5 SLP096 DENSITY ALT 700FT
01:00
V
19 °C 15 mi 5.500 ft 150° 150° 4 kt METAR CYUL 220500Z 15004KT 15SM BKN055 OVC090 19/18 A2983 RMK SC5AC3 SLP102 DENSITY ALT 700FT
00:51
V
18 °C 15 mi 10.000 ft Var Var 3 kt METAR CYUL 220451Z VRB03KT 15SM FEW035 OVC100 18/18 A2983 RMK SC2AC6 SLP102 DENSITY ALT 700FT
00:18
M
19 °C 8 mi 3.000 ft 200° 200° 5 kt METAR CYUL 220418Z 20005KT 8SM -SHRA BKN030 OVC070 19/18 A2984 RMK SC5AC3 CVCTV CLD EMBD SLP107 DENSITY ALT 700FT
00:07
M
18 °C 6 mi 2.800 ft 230° 230° 4 kt METAR CYUL 220407Z 23004KT 210V290 6SM SHRA BKN028 BKN060 OVC070 18/17 A2985 RMK SC5SC2AC1 CVCTV CLD EMBD SLP110 DENSITY ALT 600FT

2024年5月21日

时间 代码 天气 温度 能见度 天花板 METAR/SPECI
23:00
V
18 °C 15 mi 6.500 ft Var Var 2 kt METAR CYUL 220300Z VRB02KT 15SM FEW035 BKN065 OVC080 18/17 A2985 RMK SC1SC6AC2 SC TR SLP110 DENSITY ALT 700FT
22:00
V
19 °C 15 mi 24.000 ft 190° 190° 6 kt METAR CYUL 220200Z 19006KT 15SM SCT150 BKN240 19/17 A2984 RMK AC4CI3 CC ASOCTD SLP108 DENSITY ALT 700FT
21:27
V
19 °C 15 mi - 150° 150° 3 kt METAR CYUL 220127Z 15003KT 15SM FEW110 FEW150 SCT210 19/17 A2983 RMK AC1AC1CI2 SLP102 DENSITY ALT 700FT
21:00
V
19 °C 15 mi 11.000 ft 160° 160° 7 kt METAR CYUL 220100Z 16007KT 15SM -SHRA FEW060 SCT075 BKN110 19/17 A2984 RMK SC1AC3AC4 SC TR CVCTV CLD EMBD PRESFR SLP105 DENSITY ALT 800FT
20:38
V
20 °C 15 mi 12.000 ft Var Var 2 kt METAR CYUL 220038Z VRB02KT 15SM FEW060 SCT090 BKN120 20/16 A2986 RMK SC1AC3AC3 PRESFR SLP113 DENSITY ALT 800FT
20:07
V
19 °C 10 mi 5.000 ft 280° 280° 15 - 33 kt METAR CYUL 220007Z 28015G33KT 10SM -SHRA SCT035CB BKN050 BKN110 19/16 A2989 RMK CB3SC3AC1 VIS S 3 PRESRR SLP124 DENSITY ALT 700FT
20:04
V
20 °C 10 mi 5.200 ft 290° 290° 22 - 34 kt METAR CYUL 220004Z 29022G34KT 10SM SHRA SCT040CB BKN052 BKN110 20/16 A2989 RMK CB3SC3AC1 PRESRR SLP122 DENSITY ALT 800FT
19:52
V
24 °C 10 mi 5.000 ft 260° 260° 25 - 39 kt METAR CYUL 212352Z 26025G39KT 170V270 10SM -SHRA SCT024CB BKN050 BKN150 BKN250 24/15 A2987 RMK CB3SC2AC1CI1 PRESRR SLP117 DENSITY ALT 1300FT
19:00
V
26 °C 30 mi 25.000 ft 170° 170° 5 kt METAR CYUL 212300Z 17005KT 30SM FEW100 FEW150 SCT180 BKN250 26/16 A2983 RMK AC1AC2AC2CI2 AC TR SLP104 DENSITY ALT 1500FT
18:00
V
26 °C 15 mi 19.000 ft 220° 220° 5 kt METAR CYUL 212200Z 22005KT 15SM FEW080 SCT150 BKN190 BKN250 26/16 A2983 RMK AC1AC3AC2CI2 AC TR SLP102 DENSITY ALT 1600FT
17:00
V
26 °C 15 mi 18.000 ft Var Var 2 kt METAR CYUL 212100Z VRB02KT 15SM FEW090 SCT150 BKN180 BKN250 26/16 A2983 RMK AC1AC3AS1CS2 SLP102 DENSITY ALT 1500FT
16:00
V
26 °C 15 mi 25.000 ft 240° 240° 5 kt METAR CYUL 212000Z 24005KT 210V300 15SM FEW060 FEW100 SCT170 BKN250 26/16 A2984 RMK SC1AC2AC1CI3 SC TR ACC ASOCTD SLP108 DENSITY ALT 1600FT
15:00
V
24 °C 15 mi 10.000 ft 250° 250° 7 kt METAR CYUL 211900Z 25007KT 15SM FEW025 FEW055 BKN100 BKN190 24/17 A2986 RMK SC1SC1AC4AC2 SC TR SLP114 DENSITY ALT 1200FT
14:23
V
24 °C 15 mi 10.000 ft 230° 230° 6 kt METAR CYUL 211823Z 23006KT 210V270 15SM -SHRA FEW050 BKN100 BKN140 OVC180 24/17 A2987 RMK SC1AC4AC1AS2 CVCTV CLD EMBD SLP117 DENSITY ALT 1300FT
14:00
V
23 °C 15 mi 15.000 ft 240° 240° 9 kt METAR CYUL 211800Z 24009KT 15SM FEW062 SCT110 BKN150 OVC190 23/16 A2986 RMK SC1AC3AS2AS2 SLP113 DENSITY ALT 1200FT
13:00
V
22 °C 15 mi 10.000 ft 210° 210° 9 kt METAR CYUL 211700Z 21009KT 15SM -SHRA SCT060 BKN100 BKN160 OVC210 22/17 A2986 RMK SC3AC2AS2CS1 CVCTV CLD EMBD SLP112 DENSITY ALT 1100FT
12:44
V
22 °C 15 mi 11.000 ft 240° 240° 9 kt METAR CYUL 211644Z 24009KT 15SM -SHRA FEW062 BKN110 BKN170 OVC210 22/16 A2986 RMK SC1AC4AS1CS2 SLP115 DENSITY ALT 1100FT
12:00
V
24 °C 15 mi 11.000 ft 230° 230° 7 kt METAR CYUL 211600Z 23007KT 15SM FEW060 BKN110 BKN170 OVC220 24/16 A2986 RMK SC1AC5AS1CS2 SC TR SLP114 DENSITY ALT 1300FT
11:35
V
24 °C 15 mi 15.000 ft 260° 260° 13 kt METAR CYUL 211535Z 26013KT 15SM -SHRA FEW060 SCT110 BKN150 OVC220 24/15 A2988 RMK SC1AS4AC2CS2 SC TR CVCTV CLD EMBD SLP121 DENSITY ALT 1300FT
11:00
V
24 °C 15 mi 21.000 ft 270° 270° 9 - 17 kt METAR CYUL 211500Z 27009G17KT 15SM FEW060 SCT110 BKN210 OVC250 24/16 A2989 RMK SC1AC4CS2CS2 SC TR SLP123 DENSITY ALT 1300FT
10:00
V
23 °C 15 mi 21.000 ft 280° 280° 7 kt METAR CYUL 211400Z 28007KT 15SM FEW065 SCT180 BKN210 OVC250 23/15 A2990 RMK SC1AC2CS3CS2 SLP126 DENSITY ALT 1100FT
09:00
V
21 °C 15 mi 25.000 ft 230° 230° 7 kt METAR CYUL 211300Z 23007KT 15SM BKN250 21/13 A2989 RMK CI7 CS ASOCTD SLP122 DENSITY ALT 900FT
08:00
V
19 °C 15 mi 20.000 ft 230° 230° 6 kt METAR CYUL 211200Z 23006KT 15SM FEW030 OVC200 19/12 A2986 RMK CF1CS8 CF TR SLP115 DENSITY ALT 800FT
07:00
V
19 °C 15 mi 23.000 ft 230° 230° 6 kt METAR CYUL 211100Z 23006KT 15SM FEW030 OVC230 19/11 A2986 RMK CF1CI8 CF TR CS ASOCTD SLP113 DENSITY ALT 700FT
06:00
V
18 °C 15 mi 25.000 ft 220° 220° 6 kt METAR CYUL 211000Z 22006KT 15SM FEW100 OVC250 18/10 A2985 RMK AC2CI6 SLP110 DENSITY ALT 600FT
05:00
V
18 °C 15 mi 10.000 ft 170° 170° 4 kt METAR CYUL 210900Z 17004KT 15SM BKN100 OVC240 18/10 A2984 RMK AC5CS3 SLP108 DENSITY ALT 700FT
04:00
V
19 °C 15 mi 24.000 ft 240° 240° 4 kt METAR CYUL 210800Z 24004KT 15SM OVC240 19/10 A2984 RMK CI8 SLP108 DENSITY ALT 700FT
03:00
V
19 °C 15 mi 25.000 ft 250° 250° 3 kt METAR CYUL 210700Z 25003KT 15SM OVC250 19/10 A2984 RMK CI8 SLP108 DENSITY ALT 700FT
02:00
V
20 °C 15 mi 23.000 ft 230° 230° 4 kt METAR CYUL 210600Z 23004KT 15SM BKN230 20/10 A2984 RMK CI7 SLP106 DENSITY ALT 800FT
01:00
V
19 °C 15 mi 22.000 ft 240° 240° 3 kt METAR CYUL 210500Z 24003KT 15SM OVC220 19/12 A2985 RMK CS8 SLP111 DENSITY ALT 700FT
00:00
V
21 °C 15 mi 24.000 ft 200° 200° 5 kt METAR CYUL 210400Z 20005KT 180V270 15SM BKN240 21/11 A2985 RMK CI7 SLP111 DENSITY ALT 900FT

2024年5月20日

时间 代码 天气 温度 能见度 天花板 METAR/SPECI
23:00
V
22 °C 15 mi 25.000 ft 230° 230° 7 kt METAR CYUL 210300Z 23007KT 15SM BKN250 22/10 A2986 RMK CI6 SLP114 DENSITY ALT 1100FT
22:00
V
24 °C 15 mi - 240° 240° 10 kt METAR CYUL 210200Z 24010KT 15SM SCT240 24/13 A2986 RMK CI3 SLP115 DENSITY ALT 1300FT
21:00
V
25 °C 30 mi 25.000 ft 220° 220° 6 kt METAR CYUL 210100Z 22006KT 30SM FEW190 BKN250 25/14 A2986 RMK AC1CI6 SLP112 DENSITY ALT 1400FT
20:00
V
27 °C 30 mi 25.000 ft 280° 280° 6 kt METAR CYUL 210000Z 28006KT 30SM SCT200 BKN250 27/13 A2985 RMK CC4CI1 SLP111 DENSITY ALT 1700FT
19:00
V
29 °C 30 mi - 290° 290° 7 kt METAR CYUL 202300Z 29007KT 30SM FEW180 SCT250 29/14 A2984 RMK AC1CI2 SLP108 DENSITY ALT 1800FT
18:00
V
29 °C 30 mi - 290° 290° 9 - 15 kt METAR CYUL 202200Z 29009G15KT 240V310 30SM FEW060TCU FEW220 SCT250 29/13 A2985 RMK TCU1CC1CI3 TCU TR CC TR TCU S SLP109 DENSITY ALT 1900FT
17:00
V
28 °C 30 mi 25.000 ft 230° 230° 10 - 17 kt METAR CYUL 202100Z 23010G17KT 30SM FEW055 FEW220 OVC250 28/15 A2986 RMK CU1CC1CI8 CU TR CC TR SLP114 DENSITY ALT 1800FT
16:00
V
28 °C 30 mi 25.000 ft 230° 230° 11 kt METAR CYUL 202000Z 23011KT 30SM FEW055 OVC250 28/15 A2987 RMK CU1CI8 CU TR CONTRAILS SLP117 DENSITY ALT 1800FT
15:00
V
28 °C 30 mi 25.000 ft 230° 230° 13 kt METAR CYUL 201900Z 23013KT 30SM FEW050 OVC250 28/17 A2988 RMK CU1CI8 CU TR CS ASOCTD SLP119 DENSITY ALT 1700FT
14:00
V
27 °C 30 mi 25.000 ft 230° 230° 14 kt METAR CYUL 201800Z 23014KT 30SM FEW045TCU OVC250 27/17 A2990 RMK TCU1CI8 TCU TR CS ASOCTD CONTRAILS SLP126 DENSITY ALT 1600FT
13:00
V
27 °C 30 mi 25.000 ft 220° 220° 11 kt METAR CYUL 201700Z 22011KT 30SM FEW040 OVC250 27/16 A2992 RMK CU1CI8 CU TR SLP133 DENSITY ALT 1500FT
12:00
V
25 °C 30 mi 25.000 ft 230° 230° 10 kt METAR CYUL 201600Z 23010KT 30SM FEW030 BKN250 25/16 A2994 RMK CU1CI6 CU TR CC ASOCTD SLP139 DENSITY ALT 1300FT
11:00
V
23 °C 30 mi 25.000 ft 240° 240° 6 kt METAR CYUL 201500Z 24006KT 30SM BKN250 23/16 A2994 RMK CS7 CC ASOCTD SLP142 DENSITY ALT 1100FT
10:00
V
22 °C 30 mi 25.000 ft 230° 230° 8 kt METAR CYUL 201400Z 23008KT 30SM BKN250 22/16 A2995 RMK CI7 CS ASOCTD SLP143 DENSITY ALT 1000FT
09:00
V
21 °C 15 mi 25.000 ft 210° 210° 7 kt METAR CYUL 201300Z 21007KT 15SM BKN250 21/15 A2995 RMK CI6 SLP143 DENSITY ALT 800FT
08:00
V
19 °C 15 mi 25.000 ft 210° 210° 7 kt METAR CYUL 201200Z 21007KT 15SM FEW120 BKN250 19/14 A2995 RMK AC1CI5 AC TR SLP143 DENSITY ALT 600FT
07:00
V
18 °C 15 mi - 190° 190° 7 kt METAR CYUL 201100Z 19007KT 15SM FEW120 FEW250 18/13 A2994 RMK AC1CI1 SLP142 DENSITY ALT 500FT
06:00
V
16 °C 15 mi - 170° 170° 6 kt METAR CYUL 201000Z 17006KT 15SM FEW120 FEW250 16/13 A2994 RMK AC1CI1 AC TR SLP140
05:00
V
16 °C 15 mi - 160° 160° 5 kt METAR CYUL 200900Z 16005KT 15SM FEW120 FEW250 16/13 A2993 RMK AC1CI1 AC TR CI TR SLP136
04:00
V
17 °C 15 mi - 170° 170° 4 kt METAR CYUL 200800Z 17004KT 15SM FEW250 17/13 A2993 RMK CI1 CI TR SLP137 DENSITY ALT 400FT
03:00
V
17 °C 15 mi - 160° 160° 3 kt METAR CYUL 200700Z 16003KT 15SM SKC 17/13 A2992 RMK SLP135 DENSITY ALT 400FT
02:54
V
17 °C 15 mi - 150° 150° 3 kt METAR CYUL 200654Z 15003KT 15SM SKC 17/13 A2992 RMK SLP134 DENSITY ALT 400FT
报告变更